No Warnings, Watches, or Advisories

Active alerts


No alerts

Amazon Weather

Hours of Daylight

9 hrs 15 min 46 sec
of Daylight Today
graph 38.5% Day 61.5% Night Which is 33 sec Shorter
Than Yesterday

South Webcam more information South Webcam


South West Webcam more information South West Webcam


You find our weather info also at:

UK Metoffice

Weather Underground

Mid-Atlantic Weather Network

WeatherlinkIP

Citizen Weather Observer Program (CWOP)

HAMweather, WeatherForYou, PWS Weather



Nearby METAR Reports

   
KDUJ - Du Bois, Pennsylvania, USA
Distance from station: NNE 16 mi
Updated: Dec 13 2018 2:53 am
Overcast  
Overcast  
   Wind: ESE 8.1 mph
Wind: ESE 8.1 mph
Temperature: 32°F
Wind Chill: 24.8°F
Dew Point: 23°F
Humidity: 69%
Barometer: 30.04 inHg
Clouds: Overcast
Visibility: 10 mi
Cloud details: Few Clouds 3600 ft,
Mostly Cloudy 5000 ft,
Overcast 6500 ft
KDUJ 130753Z AUTO 12007KT 10SM FEW036 BKN050 OVC065 00/M05 A3004 RMK AO2 SLP190 T00001050
KIDI - Indiana/Stewart, Pennsylvania, USA
Distance from station: SSW 23 mi
Updated: Dec 13 2018 3:35 am
Overcast  
Overcast  
   Wind: ESE 3.5 mph
Wind: ESE 3.5 mph
Temperature: 33.8°F
Wind Chill: 30.2°F
Dew Point: 30.2°F
Humidity: 87%
Barometer: 30.09 inHg
Clouds: Overcast
Visibility: 10 mi
Cloud details: Few Clouds 3700 ft,
Mostly Cloudy 6000 ft,
Overcast 12000 ft
KIDI 130835Z AUTO 11003KT 10SM FEW037 BKN060 OVC120 01/M01 A3009 RMK A01
KFIG - Clearfield, Pennsylvania, USA
Distance from station: ENE 31 mi
Updated: Dec 13 2018 2:54 am
Overcast  
Overcast  
   Wind: NE 5.8 mph
Wind: NE 5.8 mph
Temperature: 32°F
Wind Chill: 26.6°F
Dew Point: 24.8°F
Humidity: 75%
Barometer: 30.09 inHg
Clouds: Overcast
Visibility: 10 mi
Cloud details: Mostly Cloudy 4000 ft,
Overcast 5000 ft
KFIG 130754Z AUTO 04005KT 10SM BKN040 OVC050 00/M04 A3009 RMK AO2 SLP205 T00001044
KJST - Johnstown, Pennsylvania, USA
Distance from station: S 44 mi
Updated: Dec 13 2018 2:54 am
Overcast  
Overcast  
   Wind: SSE 5.8 mph
Wind: SSE 5.8 mph
Temperature: 35.6°F
Wind Chill: 30.2°F
Dew Point: 24.8°F
Humidity: 65%
Barometer: 30.04 inHg
Clouds: Overcast
Visibility: 10 mi
Cloud details: Partly Cloudy 3300 ft,
Mostly Cloudy 4200 ft,
Overcast 4900 ft
KJST 130754Z AUTO 15005KT 10SM SCT033 BKN042 OVC049 02/M04 A3004 RMK AO2 SLP194 T00171039
KPIT - Pittsburgh, Pennsylvania, USA
Distance from station: WSW 74 mi
Updated: Dec 13 2018 2:51 am
Partly Cloudy  
Partly Cloudy  
   Wind: Calm
Wind: Calm
Temperature: 37.4°F
Dew Point: 28.4°F
Humidity: 70%
Barometer: 30.04 inHg
Clouds: Partly Cloudy
Visibility: 10 mi
Cloud details: Few Clouds 4500 ft,
Partly Cloudy 6000 ft
KPIT 130751Z 00000KT 10SM FEW045 SCT060 03/M02 A3004 RMK AO2 SLP188 T00331022
KLBE - Latrobe/Westmorl, Pennsylvania, USA
Distance from station: SSW 52 mi
Updated: Dec 13 2018 3:35 am
Mostly Cloudy  
Mostly Cloudy  
   Wind: SSW 6.9 mph
Wind: SSW 6.9 mph
Temperature: 41°F
Wind Chill: 35.6°F
Dew Point: 30.2°F
Humidity: 66%
Barometer: 30.07 inHg
Clouds: Mostly Cloudy
Visibility: 10 mi
Cloud details: Few Clouds 4200 ft,
Mostly Cloudy 6000 ft
KLBE 130835Z AUTO 20006KT 10SM FEW042 BKN060 05/M01 A3007 RMK AO2
KBTP - Butler Co., Pennsylvania, USA
Distance from station: WSW 52 mi
Updated: Dec 13 2018 2:56 am
Mostly Cloudy  
Mostly Cloudy  
   Wind: South 5.8 mph
Wind: South 5.8 mph
Temperature: 37.4°F
Wind Chill: 33.8°F
Dew Point: 28.4°F
Humidity: 70%
Barometer: 30.04 inHg
Clouds: Mostly Cloudy
Visibility: 10 mi
Cloud details: Partly Cloudy 4100 ft,
Partly Cloudy 7000 ft,
Mostly Cloudy 11000 ft
KBTP 130756Z AUTO 18005KT 10SM SCT041 SCT070 BKN110 03/M02 A3004 RMK AO2 SLP189 T00331022
KUCP - New Castle Muni, Pennsylvania, USA
Distance from station: W 75 mi
Updated: Dec 13 2018 2:56 am
Overcast  
Overcast  
   Wind: South 3.5 mph
Wind: South 3.5 mph
Temperature: 37.4°F
Wind Chill: 35.6°F
Dew Point: 26.6°F
Humidity: 65%
Barometer: 30.04 inHg
Clouds: Overcast
Visibility: 10 mi
Cloud details: Few Clouds 3800 ft,
Partly Cloudy 5500 ft,
Overcast 10000 ft
KUCP 130756Z AUTO 18003KT 10SM FEW038 SCT055 OVC100 03/M03 A3004 RMK AO2 SLP195 T00281033
KFKL - Franklin, Pennsylvania, USA
Distance from station: WNW 54 mi
Updated: Dec 13 2018 2:56 am
Overcast  
Overcast  
   Wind: SSE 5.8 mph
Wind: SSE 5.8 mph
Temperature: 35.6°F
Wind Chill: 30.2°F
Dew Point: 26.6°F
Humidity: 70%
Barometer: 30.02 inHg
Clouds: Overcast
Visibility: 10 mi
Cloud details: Few Clouds 3900 ft,
Partly Cloudy 4800 ft,
Overcast 6500 ft
KFKL 130756Z AUTO 15005KT 10SM FEW039 SCT048 OVC065 02/M03 A3002 RMK AO2 SLP182 T00171033 FZRANO
KAOO - Altoona, Pennsylvania, USA
Distance from station: SE 57 mi
Updated: Dec 13 2018 2:53 am
Overcast  
Overcast  
   Wind: East 3.5 mph
Wind: East 3.5 mph
Temperature: 33.8°F
Wind Chill: 30.2°F
Dew Point: 24.8°F
Humidity: 70%
Barometer: 30.11 inHg
Clouds: Overcast
Visibility: 8 mi
Cloud details: Mostly Cloudy 4300 ft,
Overcast 6000 ft
KAOO 130753Z AUTO 08003KT 8SM BKN043 OVC060 01/M04 A3011 RMK AO2 SLP211 T00061039
KUNV - State College, Pennsylvania, USA
Distance from station: E 61 mi
Updated: Dec 13 2018 3:37 am
Overcast  
Overcast  
   Wind: Calm
Wind: Calm
Temperature: 33.8°F
Dew Point: 24.8°F
Humidity: 70%
Barometer: 30.13 inHg
Clouds: Overcast
Visibility: 10 mi
Cloud details: Overcast 4800 ft
KUNV 130837Z AUTO 00000KT 10SM OVC048 01/M04 A3013 RMK AO2 T00071042
KBFD - Bradford, Pennsylvania, USA
Distance from station: NNE 62 mi
Updated: Dec 13 2018 2:53 am
Overcast  
Overcast  
   Wind: SSE 8.1 mph
Wind: SSE 8.1 mph
Temperature: 30.2°F
Wind Chill: 23°F
Dew Point: 23°F
Humidity: 75%
Barometer: 30.03 inHg
Clouds: Overcast
Visibility: 7 mi
Cloud details: Mostly Cloudy 3400 ft,
Overcast 4500 ft
KBFD 130753Z AUTO 15007KT 7SM BKN034 OVC045 M01/M05 A3003 RMK AO2 SNE00 SLP191 P0000 T10111050

Script developed by  Saratoga-weather.org Adapted for the template by  Weerstation Leuven

Equipment we use:

Weather-station
Davis VP2

Weather-program
Cumulus

Weather-server
Dell Inspiron 3521

Provider
Host On A Rope

Davis VP2

Cumulus

Dell Inspiron 3521

Host On A Rope